Terminal Aerodrome Forecast
Issued by NWS Tampa Bay Area, FL

Home | Current Version | Previous Version | Text Only | Print | Product List | Glossary On
Versions: 1 2 3 4 5 6 7 8 9 10 11 12 13 14 15 16 17 18 19 20 21 22 23 24 25 26 27 28 29 30
000
FTUS42 KTBW 270524
TAFTPA
TAF
KTPA 270524Z 2706/2806 VRB03KT P6SM FEW030 SCT250
     FM271800 25007KT P6SM BKN035 BKN250
     FM272100 27008KT P6SM VCTS SCT035CB SCT250
     FM280000 27006KT P6SM FEW120 SCT250=

USA.gov is the U.S. government's official web portal to all federal, state and local government web resources and services.